createdAt,value
2017-11-27T00:00:20.674Z,7.53
2017-11-27T00:02:49.079Z,4.53
2017-11-27T00:05:16.700Z,4.50
2017-11-27T00:07:44.324Z,4.63
2017-11-27T00:10:11.924Z,6.13
2017-11-27T00:12:39.536Z,6.30
2017-11-27T00:15:07.940Z,6.17
2017-11-27T00:17:35.564Z,7.00
2017-11-27T00:20:03.167Z,4.10
2017-11-27T00:22:40.584Z,5.73
2017-11-27T00:25:08.211Z,8.37
2017-11-27T00:27:35.802Z,5.17
2017-11-27T00:30:03.399Z,7.00
2017-11-27T00:32:30.994Z,5.33
2017-11-27T00:34:58.635Z,5.20
2017-11-27T00:37:27.032Z,7.13
2017-11-27T00:39:55.452Z,9.10
2017-11-27T00:42:23.050Z,6.63
2017-11-27T00:44:50.717Z,9.13
2017-11-27T00:47:19.083Z,9.33
2017-11-27T00:49:46.677Z,6.90
2017-11-27T00:52:15.112Z,4.77
2017-11-27T00:54:42.731Z,4.80
2017-11-27T00:57:10.360Z,5.07
2017-11-27T00:59:37.945Z,5.83
2017-11-27T01:02:06.319Z,7.03
2017-11-27T01:04:35.098Z,7.10
2017-11-27T01:07:03.016Z,8.63
2017-11-27T01:09:30.639Z,7.00
2017-11-27T01:11:59.022Z,5.00
2017-11-27T01:14:27.391Z,9.53
2017-11-27T01:16:55.095Z,8.80
2017-11-27T01:19:22.700Z,8.73
2017-11-27T01:21:50.323Z,6.77
2017-11-27T01:24:17.912Z,8.70
2017-11-27T01:26:45.514Z,6.03
2017-11-27T01:29:13.144Z,8.07
2017-11-27T01:31:40.753Z,6.30
2017-11-27T01:34:08.379Z,6.10
2017-11-27T01:36:36.098Z,7.67
2017-11-27T01:39:03.711Z,3.90
2017-11-27T01:41:32.085Z,7.87
2017-11-27T01:43:59.806Z,4.33
2017-11-27T01:46:27.399Z,6.53
2017-11-27T01:48:55.003Z,9.13
2017-11-27T01:51:22.595Z,7.10
2017-11-27T01:53:50.224Z,5.57
2017-11-27T01:56:17.823Z,7.40
2017-11-27T01:58:45.444Z,6.70
2017-11-27T02:01:13.819Z,7.47
2017-11-27T02:03:42.175Z,4.77
2017-11-27T02:06:09.804Z,9.03
2017-11-27T02:08:37.408Z,3.97
2017-11-27T02:11:05.020Z,6.87
2017-11-27T02:13:32.626Z,8.07
2017-11-27T02:16:00.253Z,7.27
2017-11-27T02:18:27.887Z,6.37
2017-11-27T02:20:55.489Z,7.37
2017-11-27T02:23:23.099Z,9.30
2017-11-27T02:25:51.470Z,7.03
2017-11-27T02:28:19.840Z,6.17
2017-11-27T02:30:47.463Z,5.43
2017-11-27T02:33:15.084Z,5.70
2017-11-27T02:35:42.706Z,6.90
2017-11-27T02:38:10.318Z,4.13
2017-11-27T02:40:37.946Z,4.17
2017-11-27T02:43:05.561Z,3.77
2017-11-27T02:45:33.190Z,6.50
2017-11-27T02:48:02.249Z,5.70
2017-11-27T02:50:29.847Z,10.63
2017-11-27T02:52:58.251Z,4.63
2017-11-27T02:55:25.844Z,5.10
2017-11-27T02:57:53.468Z,4.30
2017-11-27T03:00:21.362Z,6.70
2017-11-27T03:02:48.984Z,3.40
2017-11-27T03:05:17.411Z,6.93
2017-11-27T03:07:45.023Z,6.30
2017-11-27T03:10:13.367Z,6.27
2017-11-27T03:12:41.053Z,5.10
2017-11-27T03:15:09.424Z,5.43
2017-11-27T03:17:37.031Z,6.60
2017-11-27T03:20:04.630Z,6.83
2017-11-27T03:22:38.985Z,6.77
2017-11-27T03:25:07.346Z,3.97
2017-11-27T03:27:34.947Z,5.27
2017-11-27T03:30:02.571Z,4.23
2017-11-27T03:32:30.205Z,6.83
2017-11-27T03:34:57.859Z,4.30
2017-11-27T03:37:25.560Z,4.30
2017-11-27T03:39:53.203Z,6.70
2017-11-27T03:42:21.651Z,5.73
2017-11-27T03:44:49.261Z,5.03
2017-11-27T03:47:16.902Z,7.63
2017-11-27T03:49:44.520Z,5.20
2017-11-27T03:52:12.896Z,5.03
2017-11-27T03:54:41.287Z,4.40
2017-11-27T03:57:08.901Z,6.57
2017-11-27T03:59:36.520Z,3.23
2017-11-27T04:02:04.124Z,6.20
2017-11-27T04:04:31.754Z,1.87
2017-11-27T04:06:59.384Z,4.87
2017-11-27T04:09:27.732Z,5.80
2017-11-27T04:11:56.268Z,4.23
2017-11-27T04:14:24.750Z,2.97
2017-11-27T04:16:52.355Z,4.80
2017-11-27T04:19:19.961Z,6.90
2017-11-27T04:21:48.333Z,3.47
2017-11-27T04:24:16.692Z,4.87
2017-11-27T04:26:44.306Z,2.43
2017-11-27T04:29:11.895Z,6.40
2017-11-27T04:31:39.503Z,5.43
2017-11-27T04:34:07.871Z,5.17
2017-11-27T04:36:36.240Z,3.10
2017-11-27T04:39:03.807Z,6.33
2017-11-27T04:41:32.496Z,4.80
2017-11-27T04:44:00.914Z,4.50
2017-11-27T04:46:29.000Z,3.77
2017-11-27T04:48:56.609Z,4.77
2017-11-27T04:51:25.012Z,6.30
2017-11-27T04:53:52.602Z,5.70
2017-11-27T04:56:20.230Z,5.40
2017-11-27T04:58:47.899Z,4.43
2017-11-27T05:01:16.284Z,8.17
2017-11-27T05:03:43.895Z,4.03
2017-11-27T05:06:11.507Z,6.93
2017-11-27T05:08:39.124Z,3.60
2017-11-27T05:11:06.722Z,3.40
2017-11-27T05:13:35.089Z,4.63
2017-11-27T05:16:03.465Z,6.83
2017-11-27T05:18:31.826Z,2.27
2017-11-27T05:20:59.427Z,3.53
2017-11-27T05:23:27.037Z,5.47
2017-11-27T05:25:54.660Z,3.97
2017-11-27T05:28:22.252Z,5.47
2017-11-27T05:30:50.634Z,7.20
2017-11-27T05:33:18.291Z,5.60
2017-11-27T05:35:45.900Z,4.60
2017-11-27T05:38:14.300Z,3.53
2017-11-27T05:40:41.891Z,4.73
2017-11-27T05:43:10.195Z,2.47
2017-11-27T05:45:37.812Z,3.87
2017-11-27T05:48:05.424Z,6.33
2017-11-27T05:50:33.050Z,2.60
2017-11-27T05:53:00.679Z,3.23
2017-11-27T05:55:29.063Z,4.10
2017-11-27T05:57:56.654Z,3.97
2017-11-27T06:00:24.282Z,5.37
2017-11-27T06:02:52.635Z,3.47
2017-11-27T06:05:20.238Z,4.83
2017-11-27T06:07:47.837Z,3.97
2017-11-27T06:10:15.448Z,7.43
2017-11-27T06:12:43.824Z,5.63
2017-11-27T06:15:12.207Z,5.53
2017-11-27T06:17:40.583Z,6.60
2017-11-27T06:20:08.981Z,5.40
2017-11-27T06:22:36.609Z,4.80
2017-11-27T06:25:05.110Z,7.20
2017-11-27T06:27:33.625Z,8.07
2017-11-27T06:30:01.267Z,4.57
2017-11-27T06:32:28.876Z,152.27
2017-11-27T06:34:57.263Z,201.53
2017-11-27T06:37:24.930Z,211.90
2017-11-27T06:39:52.788Z,208.83
2017-11-27T06:42:20.387Z,54.77
2017-11-27T06:44:48.772Z,24.77
2017-11-27T06:47:17.185Z,10.33
2017-11-27T06:49:46.081Z,7.93
2017-11-27T06:52:13.691Z,4.50
2017-11-27T06:54:42.075Z,8.33
2017-11-27T06:57:10.654Z,6.70
2017-11-27T06:59:38.541Z,8.10
2017-11-27T07:02:06.896Z,8.47
2017-11-27T07:04:34.529Z,6.43
2017-11-27T07:07:02.132Z,9.47
2017-11-27T07:09:30.547Z,7.73
2017-11-27T07:11:58.204Z,9.00
2017-11-27T07:14:25.795Z,9.60
2017-11-27T07:16:53.432Z,14.67
2017-11-27T07:19:21.045Z,10.27
2017-11-27T07:21:48.633Z,5.67
2017-11-27T07:24:17.008Z,9.83
2017-11-27T07:26:45.364Z,10.00
2017-11-27T07:29:12.989Z,8.57
2017-11-27T07:31:40.599Z,7.03
2017-11-27T07:34:09.004Z,8.43
2017-11-27T07:36:36.640Z,7.43
2017-11-27T07:39:09.892Z,10.17
2017-11-27T07:41:37.501Z,9.53
2017-11-27T07:44:05.885Z,12.10
2017-11-27T07:46:34.263Z,10.37
2017-11-27T07:49:02.653Z,11.60
2017-11-27T07:51:31.084Z,10.83
2017-11-27T07:53:58.667Z,19.60
2017-11-27T07:56:26.281Z,11.20
2017-11-27T07:58:53.916Z,11.97
2017-11-27T08:01:22.423Z,12.50
2017-11-27T08:03:50.055Z,12.83
2017-11-27T08:06:18.551Z,17.97
2017-11-27T08:08:47.041Z,13.70
2017-11-27T08:11:14.689Z,13.80
2017-11-27T08:13:43.072Z,16.17
2017-11-27T08:16:11.487Z,16.67
2017-11-27T08:18:39.107Z,12.97
2017-11-27T08:21:06.757Z,10.87
2017-11-27T08:23:34.344Z,11.83
2017-11-27T08:26:02.733Z,11.97
2017-11-27T08:28:30.362Z,12.27
2017-11-27T08:30:58.006Z,11.73
2017-11-27T08:33:25.683Z,10.23
2017-11-27T08:35:53.320Z,14.00
2017-11-27T08:38:20.925Z,8.30
2017-11-27T08:40:49.311Z,13.17
2017-11-27T08:43:17.722Z,8.33
2017-11-27T08:45:45.296Z,9.53
2017-11-27T08:48:12.903Z,8.63
2017-11-27T08:50:41.380Z,11.47
2017-11-27T08:53:08.986Z,12.60
2017-11-27T08:55:36.601Z,8.97
2017-11-27T08:58:04.252Z,14.60
2017-11-27T09:00:31.856Z,10.97
2017-11-27T09:03:00.195Z,7.53
2017-11-27T09:05:27.898Z,9.67
2017-11-27T09:07:55.529Z,18.63
2017-11-27T09:10:23.151Z,9.23
2017-11-27T09:12:50.819Z,9.30
2017-11-27T09:15:18.420Z,8.90
2017-11-27T09:17:46.793Z,10.63
2017-11-27T09:20:14.415Z,8.07
2017-11-27T09:22:42.011Z,7.83
2017-11-27T09:25:11.577Z,8.37
2017-11-27T09:27:39.177Z,6.17
2017-11-27T09:30:06.767Z,8.80
2017-11-27T09:32:35.137Z,9.07
2017-11-27T09:35:02.751Z,10.03
2017-11-27T09:37:30.424Z,8.57
2017-11-27T09:39:58.041Z,13.50
2017-11-27T09:42:26.432Z,10.80
2017-11-27T09:44:54.061Z,11.57
2017-11-27T09:47:21.668Z,9.87
2017-11-27T09:49:49.260Z,9.70
2017-11-27T09:52:16.868Z,10.33
2017-11-27T09:54:45.240Z,12.90
2017-11-27T09:57:13.595Z,9.67
2017-11-27T09:59:41.251Z,11.03
2017-11-27T10:02:09.040Z,11.57
2017-11-27T10:04:37.428Z,13.03
2017-11-27T10:07:05.802Z,10.53
2017-11-27T10:09:34.224Z,8.07
2017-11-27T10:12:01.833Z,34.57
2017-11-27T10:14:29.867Z,12.60
2017-11-27T10:16:58.440Z,10.97
2017-11-27T10:19:26.035Z,10.30
2017-11-27T10:21:53.643Z,10.37
2017-11-27T10:24:22.011Z,8.70
2017-11-27T10:26:50.396Z,10.93
2017-11-27T10:29:18.779Z,12.50
2017-11-27T10:31:47.143Z,11.93
2017-11-27T10:34:15.497Z,11.07
2017-11-27T10:36:43.182Z,10.93
2017-11-27T10:39:11.101Z,10.13
2017-11-27T10:41:38.725Z,11.03
2017-11-27T10:44:07.207Z,9.90
2017-11-27T10:46:36.050Z,15.07
2017-11-27T10:49:03.666Z,12.73
2017-11-27T10:51:32.055Z,10.57
2017-11-27T10:53:59.667Z,10.80
2017-11-27T10:56:27.351Z,7.57
2017-11-27T10:58:54.963Z,9.10
2017-11-27T11:01:22.569Z,9.80
2017-11-27T11:03:50.236Z,11.10
2017-11-27T11:06:17.858Z,10.77
2017-11-27T11:08:45.472Z,8.93
2017-11-27T11:11:13.889Z,9.30
2017-11-27T11:13:41.470Z,8.67
2017-11-27T11:16:09.083Z,9.43
2017-11-27T11:18:36.731Z,7.60
2017-11-27T11:21:04.360Z,9.40
2017-11-27T11:23:31.987Z,10.07
2017-11-27T11:25:59.571Z,8.03
2017-11-27T11:28:27.198Z,8.47
2017-11-27T11:30:54.995Z,9.30
2017-11-27T11:33:22.619Z,9.33
2017-11-27T11:35:51.019Z,10.23
2017-11-27T11:38:18.611Z,7.13
2017-11-27T11:40:46.331Z,11.27
2017-11-27T11:43:14.710Z,10.93
2017-11-27T11:45:43.090Z,7.63
2017-11-27T11:48:11.449Z,11.20
2017-11-27T11:50:39.069Z,11.37
2017-11-27T11:53:06.731Z,8.40
2017-11-27T11:55:34.351Z,8.20
2017-11-27T11:58:02.751Z,9.20
2017-11-27T12:00:30.353Z,7.53
2017-11-27T12:02:57.976Z,8.97
2017-11-27T12:05:25.566Z,9.53
2017-11-27T12:07:53.175Z,11.87
2017-11-27T12:10:21.561Z,8.87
2017-11-27T12:12:49.977Z,8.43
2017-11-27T12:15:17.563Z,8.97
2017-11-27T12:17:45.171Z,10.80
2017-11-27T12:20:13.619Z,9.43
2017-11-27T12:22:41.245Z,8.53
2017-11-27T12:25:08.888Z,6.63
2017-11-27T12:27:36.527Z,6.57
2017-11-27T12:30:04.878Z,10.97
2017-11-27T12:32:32.483Z,9.10
2017-11-27T12:35:00.849Z,7.10
2017-11-27T12:37:29.242Z,11.53
2017-11-27T12:39:57.611Z,8.37
2017-11-27T12:42:26.042Z,9.27
2017-11-27T12:44:53.636Z,9.83
2017-11-27T12:47:21.247Z,7.33
2017-11-27T12:49:48.862Z,8.63
2017-11-27T12:52:16.476Z,5.33
2017-11-27T12:54:44.078Z,8.23
2017-11-27T12:57:11.684Z,6.40
2017-11-27T12:59:39.273Z,8.60
2017-11-27T13:02:06.899Z,8.77
2017-11-27T13:04:35.259Z,14.90
2017-11-27T13:07:03.659Z,10.30
2017-11-27T13:09:32.075Z,8.33
2017-11-27T13:11:59.683Z,7.97
2017-11-27T13:14:28.053Z,5.57
2017-11-27T13:16:55.703Z,11.13
2017-11-27T13:19:23.296Z,8.67
2017-11-27T13:21:51.671Z,7.30
2017-11-27T13:24:20.037Z,5.57
2017-11-27T13:26:47.649Z,8.47
2017-11-27T13:29:15.248Z,6.20
2017-11-27T13:31:43.408Z,9.40
2017-11-27T13:34:11.019Z,8.23
2017-11-27T13:36:39.371Z,7.70
2017-11-27T13:39:06.999Z,7.17
2017-11-27T13:41:34.615Z,4.10
2017-11-27T13:44:03.812Z,7.67
2017-11-27T13:46:32.181Z,6.77
2017-11-27T13:48:59.780Z,6.00
2017-11-27T13:51:27.445Z,7.53
2017-11-27T13:53:55.076Z,6.83
2017-11-27T13:56:24.154Z,5.47
2017-11-27T13:58:51.739Z,9.33
2017-11-27T14:01:20.130Z,4.37
2017-11-27T14:03:48.492Z,6.30
2017-11-27T14:06:16.872Z,5.87
2017-11-27T14:08:45.285Z,3.90
2017-11-27T14:11:12.876Z,6.70
2017-11-27T14:13:40.480Z,6.90
2017-11-27T14:16:08.839Z,5.40
2017-11-27T14:18:36.463Z,5.10
2017-11-27T14:21:04.061Z,6.20
2017-11-27T14:23:31.699Z,4.13
2017-11-27T14:25:59.294Z,7.77
2017-11-27T14:28:26.915Z,4.70
2017-11-27T14:30:54.522Z,7.47
2017-11-27T14:33:22.141Z,6.27
2017-11-27T14:35:49.743Z,6.73
2017-11-27T14:38:17.359Z,6.97
2017-11-27T14:40:44.949Z,6.67
2017-11-27T14:43:12.563Z,4.30
2017-11-27T14:45:40.148Z,5.43
2017-11-27T14:48:07.731Z,5.63
2017-11-27T14:50:35.452Z,5.63
2017-11-27T14:53:03.056Z,5.20
2017-11-27T14:55:30.699Z,5.90
2017-11-27T14:57:58.307Z,5.20
2017-11-27T15:00:26.680Z,6.93
2017-11-27T15:02:54.362Z,3.10
2017-11-27T15:05:22.733Z,7.03
2017-11-27T15:07:51.123Z,7.50
2017-11-27T15:10:18.728Z,5.97
2017-11-27T15:12:46.320Z,3.70
2017-11-27T15:15:13.968Z,5.23
2017-11-27T15:17:41.612Z,5.47
2017-11-27T15:20:09.232Z,6.20
2017-11-27T15:22:37.599Z,5.83
2017-11-27T15:25:05.222Z,6.97
2017-11-27T15:27:32.849Z,4.43
2017-11-27T15:30:00.432Z,8.20
2017-11-27T15:32:28.035Z,6.47
2017-11-27T15:34:55.623Z,9.07
2017-11-27T15:37:23.996Z,7.27
2017-11-27T15:39:52.339Z,7.10
2017-11-27T15:42:19.940Z,5.73
2017-11-27T15:44:48.377Z,5.83
2017-11-27T15:47:16.020Z,8.13
2017-11-27T15:49:43.682Z,7.03
2017-11-27T15:52:11.321Z,7.17
2017-11-27T15:54:38.915Z,8.87
2017-11-27T15:57:06.641Z,5.43
2017-11-27T15:59:35.006Z,6.30
2017-11-27T16:02:03.388Z,18.23
2017-11-27T16:04:31.771Z,6.67
2017-11-27T16:06:59.443Z,7.20
2017-11-27T16:09:27.803Z,9.30
2017-11-27T16:11:56.171Z,9.47
2017-11-27T16:14:23.898Z,8.73
2017-11-27T16:16:51.515Z,8.03
2017-11-27T16:19:19.905Z,9.07
2017-11-27T16:21:48.266Z,10.73
2017-11-27T16:24:15.897Z,8.27
2017-11-27T16:26:43.580Z,6.40
2017-11-27T16:29:11.206Z,12.53
2017-11-27T16:31:38.805Z,11.93
2017-11-27T16:34:06.415Z,7.50
2017-11-27T16:36:34.007Z,10.23
2017-11-27T16:39:01.638Z,17.57
2017-11-27T16:41:29.256Z,10.33
2017-11-27T16:43:56.853Z,13.40
2017-11-27T16:46:25.244Z,16.23
2017-11-27T16:48:52.829Z,9.83
2017-11-27T16:51:20.441Z,8.93
2017-11-27T16:53:48.891Z,14.23
2017-11-27T16:56:16.538Z,12.57
2017-11-27T16:58:44.119Z,8.90
2017-11-27T17:01:11.797Z,9.60
2017-11-27T17:03:39.440Z,11.67
2017-11-27T17:06:08.113Z,10.17
2017-11-27T17:08:35.876Z,8.37
2017-11-27T17:11:03.515Z,9.90
2017-11-27T17:13:31.096Z,8.00
2017-11-27T17:15:58.721Z,8.50
2017-11-27T17:18:27.286Z,8.77
2017-11-27T17:20:55.666Z,9.60
2017-11-27T17:23:23.256Z,7.63
2017-11-27T17:25:50.847Z,6.47
2017-11-27T17:28:18.432Z,6.93
2017-11-27T17:30:46.060Z,10.87
2017-11-27T17:33:13.648Z,6.33
2017-11-27T17:35:41.267Z,8.40
2017-11-27T17:38:08.892Z,6.33
2017-11-27T17:40:36.532Z,11.17
2017-11-27T17:43:04.143Z,9.00
2017-11-27T17:45:32.508Z,7.47
2017-11-27T17:48:00.942Z,7.03
2017-11-27T17:50:29.311Z,6.00
2017-11-27T17:52:56.970Z,4.60
2017-11-27T17:55:24.611Z,5.57
2017-11-27T17:57:52.987Z,8.03
2017-11-27T18:00:21.390Z,4.13
2017-11-27T18:02:49.027Z,6.57
2017-11-27T18:05:17.406Z,9.33
2017-11-27T18:07:45.760Z,7.27
2017-11-27T18:10:13.357Z,6.03
2017-11-27T18:12:40.956Z,5.37
2017-11-27T18:15:08.631Z,5.27
2017-11-27T18:17:36.251Z,7.20
2017-11-27T18:20:03.879Z,5.17
2017-11-27T18:22:31.513Z,4.30
2017-11-27T18:24:59.132Z,5.07
2017-11-27T18:27:26.748Z,3.63
2017-11-27T18:29:54.347Z,6.40
2017-11-27T18:32:22.706Z,5.00
2017-11-27T18:34:50.304Z,5.00
2017-11-27T18:37:17.981Z,5.37
2017-11-27T18:39:45.559Z,4.33
2017-11-27T18:42:13.171Z,6.60
2017-11-27T18:44:41.549Z,7.03
2017-11-27T18:47:10.035Z,6.67
2017-11-27T18:49:38.403Z,7.10
2017-11-27T18:52:06.783Z,5.97
2017-11-27T18:54:35.227Z,2.90
2017-11-27T18:57:02.879Z,6.90
2017-11-27T18:59:30.515Z,5.07
2017-11-27T19:01:58.096Z,5.13
2017-11-27T19:04:25.734Z,4.33
2017-11-27T19:06:53.320Z,6.47
2017-11-27T19:09:20.942Z,4.37
2017-11-27T19:11:49.329Z,5.57
2017-11-27T19:14:17.780Z,6.67
2017-11-27T19:16:45.417Z,5.77
2017-11-27T19:19:13.008Z,7.17
2017-11-27T19:21:40.658Z,4.67
2017-11-27T19:24:08.255Z,5.87
2017-11-27T19:26:36.652Z,5.77
2017-11-27T19:29:05.026Z,7.63
2017-11-27T19:31:33.411Z,6.17
2017-11-27T19:34:01.829Z,7.87
2017-11-27T19:36:29.407Z,5.17
2017-11-27T19:38:57.031Z,6.73
2017-11-27T19:41:24.637Z,3.33
2017-11-27T19:43:52.244Z,4.80
2017-11-27T19:46:19.883Z,6.73
2017-11-27T19:48:48.364Z,7.03
2017-11-27T19:51:16.765Z,4.50
2017-11-27T19:53:44.392Z,6.07
2017-11-27T19:56:12.001Z,6.57
2017-11-27T19:58:39.716Z,5.80
2017-11-27T20:01:07.320Z,5.00
2017-11-27T20:03:36.087Z,6.73
2017-11-27T20:06:04.448Z,8.77
2017-11-27T20:08:32.080Z,6.50
2017-11-27T20:10:59.697Z,6.53
2017-11-27T20:13:28.082Z,5.27
2017-11-27T20:15:55.703Z,4.23
2017-11-27T20:18:24.698Z,6.63
2017-11-27T20:20:52.276Z,8.33
2017-11-27T20:23:19.993Z,5.67
2017-11-27T20:25:47.578Z,9.03
2017-11-27T20:28:15.205Z,6.37
2017-11-27T20:30:42.806Z,9.63
2017-11-27T20:33:10.402Z,9.47
2017-11-27T20:35:38.770Z,4.90
2017-11-27T20:38:06.371Z,10.27
2017-11-27T20:40:34.027Z,5.03
2017-11-27T20:43:01.616Z,9.27
2017-11-27T20:45:29.235Z,7.70
2017-11-27T20:47:57.597Z,5.50
2017-11-27T20:50:25.226Z,7.13
2017-11-27T20:52:52.945Z,7.50
2017-11-27T20:55:21.354Z,6.13
2017-11-27T20:57:48.990Z,4.53
2017-11-27T21:00:17.367Z,4.87
2017-11-27T21:02:45.751Z,4.60
2017-11-27T21:05:14.241Z,6.27
2017-11-27T21:07:41.864Z,7.13
2017-11-27T21:10:09.518Z,8.17
2017-11-27T21:12:37.125Z,8.90
2017-11-27T21:15:04.734Z,5.87
2017-11-27T21:17:33.118Z,7.97
2017-11-27T21:20:00.779Z,4.90
2017-11-27T21:22:28.352Z,5.37
2017-11-27T21:24:55.968Z,6.30
2017-11-27T21:27:23.576Z,4.10
2017-11-27T21:29:51.197Z,4.67
2017-11-27T21:32:18.812Z,6.53
2017-11-27T21:34:47.224Z,6.83
2017-11-27T21:37:14.865Z,8.30
2017-11-27T21:39:43.236Z,4.57
2017-11-27T21:42:11.624Z,6.50
2017-11-27T21:44:39.253Z,5.00
2017-11-27T21:47:06.869Z,6.63
2017-11-27T21:49:34.460Z,4.20
2017-11-27T21:52:02.128Z,8.13
2017-11-27T21:54:30.490Z,6.00
2017-11-27T21:56:58.086Z,5.57
2017-11-27T21:59:25.675Z,6.07
2017-11-27T22:01:54.096Z,4.80
2017-11-27T22:04:21.698Z,12.07
2017-11-27T22:06:49.308Z,7.57
2017-11-27T22:09:16.944Z,6.20
2017-11-27T22:11:44.548Z,8.27
2017-11-27T22:14:12.163Z,6.10
2017-11-27T22:16:40.524Z,8.57
2017-11-27T22:19:08.137Z,4.73
2017-11-27T22:21:35.739Z,6.67
2017-11-27T22:24:03.340Z,5.77
2017-11-27T22:26:31.714Z,5.80
2017-11-27T22:28:59.403Z,5.43
2017-11-27T22:31:27.011Z,6.53
2017-11-27T22:33:54.607Z,7.43
2017-11-27T22:36:23.016Z,6.23
2017-11-27T22:38:50.616Z,6.47
2017-11-27T22:41:18.291Z,5.13
2017-11-27T22:43:45.915Z,6.00
2017-11-27T22:46:13.507Z,8.40
2017-11-27T22:48:41.105Z,6.60
2017-11-27T22:51:09.458Z,5.17
2017-11-27T22:53:37.073Z,5.13
2017-11-27T22:56:04.706Z,5.47
2017-11-27T22:58:33.079Z,5.33
2017-11-27T23:01:01.464Z,5.53
2017-11-27T23:03:29.834Z,6.93
2017-11-27T23:05:58.213Z,5.00
2017-11-27T23:08:26.604Z,7.73
2017-11-27T23:10:54.983Z,3.27
2017-11-27T23:13:23.373Z,3.47
2017-11-27T23:15:51.028Z,6.53
2017-11-27T23:18:19.405Z,7.33
2017-11-27T23:20:47.748Z,4.83
2017-11-27T23:23:15.378Z,4.43
2017-11-27T23:25:42.949Z,4.60
2017-11-27T23:28:10.564Z,3.77
2017-11-27T23:30:38.926Z,7.07
2017-11-27T23:33:07.412Z,5.87
2017-11-27T23:35:35.071Z,5.60
2017-11-27T23:38:02.664Z,5.57
2017-11-27T23:40:31.032Z,3.10
2017-11-27T23:42:59.457Z,5.10
2017-11-27T23:45:27.066Z,4.80
2017-11-27T23:47:54.669Z,7.13
2017-11-27T23:50:22.370Z,5.40
2017-11-27T23:52:49.961Z,4.13
2017-11-27T23:55:18.424Z,6.87
2017-11-27T23:57:46.104Z,6.13
